Time,TemperatureF,DewpointF,PressureIn,WindDirection,WindDirectionDegrees,WindSpeedMPH,WindSpeedGustMPH,Humidity,HourlyPrecipIn,Conditions,Clouds,dailyrainin,SolarRadiationWatts/m^2,SoftwareType,DateUTC
2013-01-26 00:05:00,54.1,50.9,30.07,NE,55,0.0,0.0,89,0.00,,,0.00,0,Wunderground v.1.15,2013-01-26 08:05:00,
2013-01-26 00:11:00,54.1,50.9,30.07,NE,55,0.0,0.0,89,0.00,,,0.00,0,Wunderground v.1.15,2013-01-26 08:11:00,
2013-01-26 00:20:00,54.0,50.8,30.07,NE,55,0.0,0.0,89,0.00,,,0.00,0,Wunderground v.1.15,2013-01-26 08:20:00,
2013-01-26 00:35:00,53.9,50.7,30.06,NE,55,0.0,0.0,89,0.00,,,0.00,0,Wunderground v.1.15,2013-01-26 08:35:00,
2013-01-26 00:45:00,53.7,50.5,30.06,NE,55,0.0,0.0,89,0.00,,,0.00,0,Wunderground v.1.15,2013-01-26 08:45:00,
2013-01-26 00:50:00,53.7,50.5,30.06,NE,55,0.0,0.0,89,0.00,,,0.00,0,Wunderground v.1.15,2013-01-26 08:50:00,
2013-01-26 01:00:00,53.6,50.4,30.05,NE,55,0.0,0.0,89,0.00,,,0.00,0,Wunderground v.1.15,2013-01-26 09:00:00,
2013-01-26 01:15:00,53.4,50.5,30.05,NE,55,0.0,0.0,90,0.00,,,0.00,0,Wunderground v.1.15,2013-01-26 09:15:00,
2013-01-26 01:20:00,53.3,50.4,30.05,NE,55,0.0,0.0,90,0.00,,,0.00,0,Wunderground v.1.15,2013-01-26 09:20:00,
2013-01-26 01:30:00,53.3,50.4,30.05,NE,55,0.0,0.0,90,0.00,,,0.00,0,Wunderground v.1.15,2013-01-26 09:30:00,
2013-01-26 01:40:00,53.3,50.4,30.05,NE,55,0.0,0.0,90,0.00,,,0.00,0,Wunderground v.1.15,2013-01-26 09:40:00,
2013-01-26 01:55:00,53.2,50.3,30.05,NE,55,0.0,0.0,90,0.00,,,0.00,0,Wunderground v.1.15,2013-01-26 09:55:00,
2013-01-26 02:00:00,53.2,50.3,30.05,NE,55,0.0,0.0,90,0.00,,,0.00,0,Wunderground v.1.15,2013-01-26 10:00:00,
2013-01-26 02:15:00,52.9,50.0,30.05,NE,55,0.0,0.0,90,0.00,,,0.00,0,Wunderground v.1.15,2013-01-26 10:15:00,
2013-01-26 02:20:00,52.8,49.9,30.05,NE,56,0.0,0.0,90,0.00,,,0.00,0,Wunderground v.1.15,2013-01-26 10:20:00,
2013-01-26 02:35:00,52.4,49.6,30.05,ENE,57,3.0,3.0,90,0.00,,,0.00,0,Wunderground v.1.15,2013-01-26 10:35:00,
2013-01-26 02:40:00,52.2,49.4,30.05,NE,56,1.0,3.0,90,0.00,,,0.00,0,Wunderground v.1.15,2013-01-26 10:40:00,
2013-01-26 02:50:00,52.0,49.2,30.05,ENE,75,0.0,0.0,90,0.00,,,0.00,0,Wunderground v.1.15,2013-01-26 10:50:00,
2013-01-26 03:01:00,51.7,49.2,30.04,ENE,76,0.0,0.0,91,0.00,,,0.00,0,Wunderground v.1.15,2013-01-26 11:01:00,
2013-01-26 03:15:00,51.4,48.9,30.04,ENE,76,0.0,0.0,91,0.00,,,0.00,0,Wunderground v.1.15,2013-01-26 11:15:00,
2013-01-26 03:25:00,51.2,48.7,30.03,ENE,76,0.0,0.0,91,0.00,,,0.00,0,Wunderground v.1.15,2013-01-26 11:25:00,
2013-01-26 03:31:00,51.1,48.6,30.03,ENE,65,0.0,0.0,91,0.00,,,0.00,0,Wunderground v.1.15,2013-01-26 11:31:00,
2013-01-26 03:45:00,50.9,48.7,30.03,NE,55,0.0,0.0,92,0.00,,,0.00,0,Wunderground v.1.15,2013-01-26 11:45:00,
2013-01-26 03:55:00,50.8,48.6,30.03,ENE,63,0.0,0.0,92,0.00,,,0.00,0,Wunderground v.1.15,2013-01-26 11:55:00,
2013-01-26 04:01:00,50.7,48.5,30.03,ENE,63,0.0,0.0,92,0.00,,,0.00,0,Wunderground v.1.15,2013-01-26 12:01:00,
2013-01-26 04:15:00,50.7,48.5,30.02,ENE,63,0.0,0.0,92,0.00,,,0.00,0,Wunderground v.1.15,2013-01-26 12:15:00,
2013-01-26 04:20:00,50.6,48.4,30.02,ENE,63,0.0,0.0,92,0.00,,,0.00,0,Wunderground v.1.15,2013-01-26 12:20:00,
2013-01-26 04:30:00,50.4,48.2,30.02,ENE,63,0.0,0.0,92,0.00,,,0.00,0,Wunderground v.1.15,2013-01-26 12:30:00,
2013-01-26 04:45:00,50.4,48.2,30.02,ENE,63,0.0,0.0,92,0.00,,,0.00,0,Wunderground v.1.15,2013-01-26 12:45:00,
2013-01-26 04:50:00,50.4,48.5,30.02,ENE,63,0.0,0.0,93,0.00,,,0.00,0,Wunderground v.1.15,2013-01-26 12:50:00,
2013-01-26 05:00:00,50.5,48.6,30.02,ENE,63,1.0,1.0,93,0.00,,,0.00,0,Wunderground v.1.15,2013-01-26 13:00:00,
2013-01-26 05:11:00,50.7,48.5,30.02,ENE,63,1.0,4.0,92,0.00,,,0.00,0,Wunderground v.1.15,2013-01-26 13:11:00,
2013-01-26 05:20:00,50.7,48.5,30.02,ENE,63,2.0,2.0,92,0.00,,,0.00,0,Wunderground v.1.15,2013-01-26 13:20:00,
2013-01-26 05:35:00,49.8,47.6,30.03,ENE,66,4.0,4.0,92,0.00,,,0.00,0,Wunderground v.1.15,2013-01-26 13:35:00,
2013-01-26 05:45:00,49.3,47.1,30.03,ENE,67,5.0,5.0,92,0.00,,,0.00,0,Wunderground v.1.15,2013-01-26 13:45:00,
2013-01-26 05:51:00,49.0,46.8,30.03,ENE,67,2.0,5.0,92,0.00,,,0.00,0,Wunderground v.1.15,2013-01-26 13:51:00,
2013-01-26 06:05:00,48.7,46.8,30.03,ENE,67,0.0,0.0,93,0.00,,,0.00,0,Wunderground v.1.15,2013-01-26 14:05:00,
2013-01-26 06:10:00,48.6,46.7,30.03,ENE,67,0.0,2.0,93,0.00,,,0.00,0,Wunderground v.1.15,2013-01-26 14:10:00,
2013-01-26 06:20:00,48.4,46.8,30.03,ENE,67,1.0,1.0,94,0.00,,,0.00,0,Wunderground v.1.15,2013-01-26 14:20:00,
2013-01-26 06:30:00,48.4,46.8,30.03,ENE,67,0.0,0.0,94,0.00,,,0.00,0,Wunderground v.1.15,2013-01-26 14:30:00,
2013-01-26 06:41:00,48.4,46.8,30.03,ENE,67,0.0,0.0,94,0.00,,,0.00,0,Wunderground v.1.15,2013-01-26 14:41:00,
2013-01-26 06:50:00,48.4,46.8,30.03,ENE,67,0.0,0.0,94,0.00,,,0.00,0,Wunderground v.1.15,2013-01-26 14:50:00,
2013-01-26 07:05:00,48.5,46.9,30.03,ENE,67,0.0,0.0,94,0.00,,,0.00,0,Wunderground v.1.15,2013-01-26 15:05:00,
2013-01-26 07:11:00,48.4,46.8,30.03,ENE,67,0.0,0.0,94,0.00,,,0.00,0,Wunderground v.1.15,2013-01-26 15:11:00,
2013-01-26 07:25:00,48.4,47.0,30.03,ENE,67,0.0,0.0,95,0.00,,,0.00,0,Wunderground v.1.15,2013-01-26 15:25:00,
2013-01-26 07:31:00,48.5,47.1,30.03,ENE,67,0.0,0.0,95,0.00,,,0.00,5,Wunderground v.1.15,2013-01-26 15:31:00,
2013-01-26 07:41:00,48.5,47.1,30.03,ENE,67,0.0,0.0,95,0.00,,,0.00,12,Wunderground v.1.15,2013-01-26 15:41:00,
2013-01-26 07:50:00,48.6,47.2,30.03,ENE,67,0.0,0.0,95,0.00,,,0.00,11,Wunderground v.1.15,2013-01-26 15:50:00,
2013-01-26 08:01:00,48.6,47.2,30.03,ENE,67,1.0,1.0,95,0.00,,,0.00,12,Wunderground v.1.15,2013-01-26 16:01:00,
2013-01-26 08:10:00,48.6,47.2,30.03,SSW,192,0.0,6.0,95,0.00,,,0.00,12,Wunderground v.1.15,2013-01-26 16:10:00,
2013-01-26 08:20:00,48.6,47.2,30.03,SSW,192,1.0,1.0,95,0.00,,,0.00,28,Wunderground v.1.15,2013-01-26 16:20:00,
2013-01-26 08:35:00,48.6,47.2,30.03,SSW,201,4.0,4.0,95,0.00,,,0.00,25,Wunderground v.1.15,2013-01-26 16:35:00,
2013-01-26 08:40:00,48.7,47.3,30.03,SW,220,3.0,4.0,95,0.00,,,0.00,26,Wunderground v.1.15,2013-01-26 16:40:00,
2013-01-26 08:50:00,48.6,47.2,30.03,WSW,256,6.0,9.0,95,0.00,,,0.00,30,Wunderground v.1.15,2013-01-26 16:50:00,
2013-01-26 09:00:00,48.3,46.9,30.04,WSW,254,6.0,10.0,95,0.00,,,0.00,33,Wunderground v.1.15,2013-01-26 17:00:00,
2013-01-26 09:11:00,47.9,46.5,30.04,SW,227,6.0,6.0,95,0.00,,,0.00,60,Wunderground v.1.15,2013-01-26 17:11:00,
2013-01-26 09:25:00,47.5,46.1,30.04,SW,230,5.0,7.0,95,0.00,,,0.01,70,Wunderground v.1.15,2013-01-26 17:25:00,
2013-01-26 09:31:00,47.3,45.9,30.05,WSW,237,5.0,7.0,95,0.00,,,0.01,95,Wunderground v.1.15,2013-01-26 17:31:00,
2013-01-26 09:40:00,47.1,45.7,30.05,SSW,203,5.0,8.0,95,0.00,,,0.01,232,Wunderground v.1.15,2013-01-26 17:40:00,
2013-01-26 09:55:00,47.2,46.1,30.05,West,265,2.0,7.0,96,0.00,,,0.01,156,Wunderground v.1.15,2013-01-26 17:55:00,
2013-01-26 10:01:00,47.0,45.6,30.05,South,184,3.0,5.0,95,0.00,,,0.01,199,Wunderground v.1.15,2013-01-26 18:01:00,
2013-01-26 10:15:00,47.1,46.0,30.05,SW,221,0.0,0.0,96,0.00,,,0.01,295,Wunderground v.1.15,2013-01-26 18:15:00,
2013-01-26 10:20:00,47.3,46.2,30.05,SSW,202,1.0,3.0,96,0.00,,,0.01,283,Wunderground v.1.15,2013-01-26 18:20:00,
2013-01-26 10:35:00,46.9,45.5,30.06,SSW,201,5.0,5.0,95,0.00,,,0.01,232,Wunderground v.1.15,2013-01-26 18:35:00,
2013-01-26 10:41:00,46.9,45.5,30.05,SSW,200,5.0,8.0,95,0.00,,,0.01,251,Wunderground v.1.15,2013-01-26 18:41:00,
2013-01-26 10:55:00,47.4,46.0,30.05,SSW,205,5.0,6.0,95,0.00,,,0.01,262,Wunderground v.1.15,2013-01-26 18:55:00,
2013-01-26 11:00:00,47.6,46.2,30.05,WSW,246,5.0,5.0,95,0.00,,,0.01,459,Wunderground v.1.15,2013-01-26 19:00:00,
2013-01-26 11:10:00,48.1,46.5,30.06,SSW,198,5.0,12.0,94,0.00,,,0.01,510,Wunderground v.1.15,2013-01-26 19:10:00,
2013-01-26 11:20:00,48.5,46.0,30.05,SSW,200,8.0,8.0,91,0.00,,,0.01,512,Wunderground v.1.15,2013-01-26 19:20:00,
2013-01-26 11:30:00,49.1,45.7,30.05,WSW,255,6.0,6.0,88,0.00,,,0.01,527,Wunderground v.1.15,2013-01-26 19:30:00,
2013-01-26 11:40:00,49.7,44.7,30.04,SW,227,6.0,9.0,83,0.00,,,0.01,533,Wunderground v.1.15,2013-01-26 19:40:00,
2013-01-26 11:55:00,50.0,43.4,30.04,WSW,244,7.0,9.0,78,0.00,,,0.01,541,Wunderground v.1.15,2013-01-26 19:55:00,
2013-01-26 12:05:00,50.3,43.7,30.03,South,172,6.0,11.0,78,0.00,,,0.01,524,Wunderground v.1.15,2013-01-26 20:05:00,
2013-01-26 12:15:00,50.6,42.6,30.03,SSW,209,7.0,13.0,74,0.00,,,0.01,480,Wunderground v.1.15,2013-01-26 20:15:00,
2013-01-26 12:25:00,50.6,42.6,30.02,SW,235,8.0,12.0,74,0.00,,,0.01,434,Wunderground v.1.15,2013-01-26 20:25:00,
2013-01-26 12:35:00,50.8,42.5,30.02,WSW,242,8.0,9.0,73,0.00,,,0.01,418,Wunderground v.1.15,2013-01-26 20:35:00,
2013-01-26 12:45:00,50.9,42.6,30.02,WSW,240,10.0,10.0,73,0.00,,,0.01,425,Wunderground v.1.15,2013-01-26 20:45:00,
2013-01-26 12:55:00,50.9,42.6,30.02,WSW,242,10.0,10.0,73,0.00,,,0.01,462,Wunderground v.1.15,2013-01-26 20:55:00,
2013-01-26 13:00:00,51.0,43.0,30.02,West,261,10.0,10.0,74,0.00,,,0.01,482,Wunderground v.1.15,2013-01-26 21:00:00,
2013-01-26 13:10:00,50.9,43.3,30.02,SW,232,12.0,13.0,75,0.00,,,0.01,534,Wunderground v.1.15,2013-01-26 21:10:00,
2013-01-26 13:25:00,50.5,44.2,30.02,SW,227,12.0,12.0,79,0.00,,,0.01,529,Wunderground v.1.15,2013-01-26 21:25:00,
2013-01-26 13:30:00,50.4,44.5,30.02,WSW,244,12.0,14.0,80,0.00,,,0.01,543,Wunderground v.1.15,2013-01-26 21:30:00,
2013-01-26 13:40:00,50.1,44.5,30.02,WSW,245,12.0,13.0,81,0.00,,,0.01,485,Wunderground v.1.15,2013-01-26 21:40:00,
2013-01-26 13:50:00,50.3,44.0,30.02,WSW,240,10.0,11.0,79,0.00,,,0.01,443,Wunderground v.1.15,2013-01-26 21:50:00,
2013-01-26 14:05:00,49.9,43.6,30.02,WSW,254,14.0,14.0,79,0.00,,,0.01,385,Wunderground v.1.15,2013-01-26 22:05:00,
2013-01-26 14:15:00,50.1,43.8,30.02,SW,217,11.0,20.0,79,0.00,,,0.01,410,Wunderground v.1.15,2013-01-26 22:15:00,
2013-01-26 14:25:00,50.0,43.7,30.02,West,280,12.0,13.0,79,0.00,,,0.01,427,Wunderground v.1.15,2013-01-26 22:25:00,
2013-01-26 14:31:00,50.1,43.5,30.03,WSW,242,10.0,13.0,78,0.00,,,0.01,348,Wunderground v.1.15,2013-01-26 22:31:00,
2013-01-26 14:45:00,49.7,42.4,30.03,SW,236,12.0,12.0,76,0.00,,,0.01,253,Wunderground v.1.15,2013-01-26 22:45:00,
2013-01-26 14:55:00,49.6,42.0,30.03,SW,233,12.0,12.0,75,0.00,,,0.01,258,Wunderground v.1.15,2013-01-26 22:55:00,
2013-01-26 15:05:00,49.6,42.0,30.03,SW,236,11.0,15.0,75,0.00,,,0.01,276,Wunderground v.1.15,2013-01-26 23:05:00,
2013-01-26 15:15:00,49.4,42.1,30.03,West,270,13.0,13.0,76,0.00,,,0.01,336,Wunderground v.1.15,2013-01-26 23:15:00,
2013-01-26 15:25:00,49.0,42.4,30.03,WNW,288,14.0,17.0,78,0.00,,,0.01,325,Wunderground v.1.15,2013-01-26 23:25:00,
2013-01-26 15:35:00,48.9,42.0,30.03,SW,223,12.0,15.0,77,0.00,,,0.01,287,Wunderground v.1.15,2013-01-26 23:35:00,
2013-01-26 15:40:00,48.7,41.1,30.03,West,261,13.0,20.0,75,0.00,,,0.01,229,Wunderground v.1.15,2013-01-26 23:40:00,
2013-01-26 15:51:00,48.4,40.8,30.03,West,261,13.0,14.0,75,0.00,,,0.01,248,Wunderground v.1.15,2013-01-26 23:51:00,
2013-01-26 16:01:00,48.4,41.2,30.03,WSW,258,10.0,10.0,76,0.00,,,0.01,213,Wunderground v.1.15,2013-01-27 00:01:00,
2013-01-26 16:15:00,48.4,41.5,30.03,West,259,10.0,10.0,77,0.00,,,0.01,162,Wunderground v.1.15,2013-01-27 00:15:00,
2013-01-26 16:25:00,48.2,41.3,30.03,SW,232,14.0,19.0,77,0.00,,,0.01,120,Wunderground v.1.15,2013-01-27 00:25:00,
2013-01-26 16:35:00,47.9,41.0,30.02,WSW,256,12.0,12.0,77,0.00,,,0.01,93,Wunderground v.1.15,2013-01-27 00:35:00,
2013-01-26 16:40:00,47.8,41.3,30.03,WSW,242,12.0,12.0,78,0.00,,,0.01,76,Wunderground v.1.15,2013-01-27 00:40:00,
2013-01-26 16:51:00,47.6,41.7,30.03,West,269,10.0,11.0,80,0.00,,,0.01,49,Wunderground v.1.15,2013-01-27 00:51:00,
2013-01-26 17:00:00,47.3,41.8,30.03,SW,227,10.0,17.0,81,0.00,,,0.01,30,Wunderground v.1.15,2013-01-27 01:00:00,
2013-01-26 17:15:00,46.9,42.0,30.04,WSW,248,10.0,10.0,83,0.00,,,0.01,14,Wunderground v.1.15,2013-01-27 01:15:00,
2013-01-26 17:25:00,46.5,41.9,30.04,WNW,285,9.0,11.0,84,0.00,,,0.01,5,Wunderground v.1.15,2013-01-27 01:25:00,
2013-01-26 17:35:00,46.2,41.6,30.04,SW,232,9.0,10.0,84,0.00,,,0.01,0,Wunderground v.1.15,2013-01-27 01:35:00,
2013-01-26 17:45:00,46.0,41.7,30.04,SSW,207,9.0,9.0,85,0.00,,,0.01,0,Wunderground v.1.15,2013-01-27 01:45:00,
2013-01-26 17:50:00,45.8,41.2,30.04,SW,234,9.0,10.0,84,0.00,,,0.01,0,Wunderground v.1.15,2013-01-27 01:50:00,
2013-01-26 18:00:00,45.8,41.2,30.05,West,261,8.0,9.0,84,0.00,,,0.01,0,Wunderground v.1.15,2013-01-27 02:00:00,
2013-01-26 18:10:00,45.6,40.7,30.05,WSW,257,9.0,10.0,83,0.00,,,0.01,0,Wunderground v.1.15,2013-01-27 02:10:00,
2013-01-26 18:20:00,45.6,40.7,30.06,SW,227,8.0,9.0,83,0.00,,,0.01,0,Wunderground v.1.15,2013-01-27 02:20:00,
2013-01-26 18:35:00,45.4,40.5,30.06,WSW,243,7.0,7.0,83,0.00,,,0.01,0,Wunderground v.1.15,2013-01-27 02:35:00,
2013-01-26 18:40:00,45.4,40.8,30.06,WSW,257,7.0,9.0,84,0.00,,,0.01,0,Wunderground v.1.15,2013-01-27 02:40:00,
2013-01-26 18:55:00,45.2,40.7,30.06,WSW,254,7.0,11.0,84,0.00,,,0.01,0,Wunderground v.1.15,2013-01-27 02:55:00,
2013-01-26 19:05:00,45.2,40.7,30.07,West,261,9.0,12.0,84,0.00,,,0.01,0,Wunderground v.1.15,2013-01-27 03:05:00,
2013-01-26 19:15:00,45.2,40.7,30.07,WSW,246,8.0,8.0,84,0.00,,,0.01,0,Wunderground v.1.15,2013-01-27 03:15:00,
2013-01-26 19:20:00,45.2,40.7,30.07,WSW,244,8.0,9.0,84,0.00,,,0.01,0,Wunderground v.1.15,2013-01-27 03:20:00,
2013-01-26 19:31:00,45.1,40.6,30.07,WSW,240,8.0,9.0,84,0.00,,,0.01,0,Wunderground v.1.15,2013-01-27 03:31:00,
2013-01-26 19:40:00,45.0,40.8,30.07,SW,225,8.0,8.0,85,0.00,,,0.01,0,Wunderground v.1.15,2013-01-27 03:40:00,
2013-01-26 19:50:00,44.9,40.7,30.08,SW,215,8.0,12.0,85,0.00,,,0.01,0,Wunderground v.1.15,2013-01-27 03:50:00,
2013-01-26 20:01:00,44.9,40.7,30.08,SSW,212,8.0,8.0,85,0.00,,,0.01,0,Wunderground v.1.15,2013-01-27 04:01:00,
2013-01-26 20:10:00,45.0,41.1,30.08,West,259,8.0,8.0,86,0.00,,,0.01,0,Wunderground v.1.15,2013-01-27 04:10:00,
2013-01-26 20:20:00,45.0,41.1,30.07,West,261,8.0,8.0,86,0.00,,,0.01,0,Wunderground v.1.15,2013-01-27 04:20:00,
2013-01-26 20:35:00,44.8,40.9,30.08,West,271,9.0,9.0,86,0.00,,,0.01,0,Wunderground v.1.15,2013-01-27 04:35:00,
2013-01-26 20:41:00,44.8,40.9,30.08,West,266,9.0,9.0,86,0.00,,,0.01,0,Wunderground v.1.15,2013-01-27 04:41:00,
2013-01-26 20:55:00,44.7,40.8,30.08,West,260,8.0,8.0,86,0.00,,,0.01,0,Wunderground v.1.15,2013-01-27 04:55:00,
2013-01-26 21:05:00,44.5,40.6,30.08,West,265,8.0,8.0,86,0.00,,,0.01,0,Wunderground v.1.15,2013-01-27 05:05:00,
2013-01-26 21:10:00,44.4,40.5,30.08,WSW,245,9.0,13.0,86,0.00,,,0.01,0,Wunderground v.1.15,2013-01-27 05:10:00,
2013-01-26 21:15:00,44.3,40.4,30.08,West,263,9.0,11.0,86,0.00,,,0.01,0,Wunderground v.1.15,2013-01-27 05:15:00,
2013-01-26 21:20:00,44.3,40.4,30.08,WSW,255,9.0,11.0,86,0.00,,,0.01,0,Wunderground v.1.15,2013-01-27 05:20:00,
2013-01-26 21:31:00,44.3,40.4,30.08,WSW,250,8.0,9.0,86,0.00,,,0.01,0,Wunderground v.1.15,2013-01-27 05:31:00,
2013-01-26 21:45:00,44.3,40.4,30.08,West,262,9.0,9.0,86,0.00,,,0.01,0,Wunderground v.1.15,2013-01-27 05:45:00,
2013-01-26 21:50:00,44.2,40.3,30.08,WSW,256,8.0,9.0,86,0.00,,,0.01,0,Wunderground v.1.15,2013-01-27 05:50:00,
2013-01-26 22:01:00,44.1,40.2,30.09,West,268,7.0,11.0,86,0.00,,,0.01,0,Wunderground v.1.15,2013-01-27 06:01:00,
2013-01-26 22:15:00,44.0,40.4,30.09,West,267,8.0,12.0,87,0.00,,,0.01,0,Wunderground v.1.15,2013-01-27 06:15:00,
2013-01-26 22:25:00,43.9,40.3,30.09,West,263,9.0,9.0,87,0.00,,,0.01,0,Wunderground v.1.15,2013-01-27 06:25:00,
2013-01-26 22:35:00,44.0,40.4,30.09,West,261,10.0,10.0,87,0.00,,,0.01,0,Wunderground v.1.15,2013-01-27 06:35:00,
2013-01-26 22:41:00,44.0,40.1,30.09,West,277,10.0,10.0,86,0.00,,,0.01,0,Wunderground v.1.15,2013-01-27 06:41:00,
2013-01-26 22:50:00,44.0,40.1,30.09,WSW,252,8.0,11.0,86,0.00,,,0.01,0,Wunderground v.1.15,2013-01-27 06:50:00,
2013-01-26 23:01:00,43.9,40.3,30.09,WSW,244,7.0,7.0,87,0.00,,,0.01,0,Wunderground v.1.15,2013-01-27 07:01:00,
2013-01-26 23:15:00,44.0,40.4,30.10,West,262,7.0,8.0,87,0.00,,,0.01,0,Wunderground v.1.15,2013-01-27 07:15:00,
2013-01-26 23:21:00,43.9,40.3,30.10,West,260,6.0,10.0,87,0.00,,,0.01,0,Wunderground v.1.15,2013-01-27 07:21:00,
2013-01-26 23:35:00,43.9,40.3,30.10,West,262,7.0,8.0,87,0.00,,,0.01,0,Wunderground v.1.15,2013-01-27 07:35:00,
2013-01-26 23:40:00,43.9,40.3,30.10,WSW,250,6.0,8.0,87,0.00,,,0.01,0,Wunderground v.1.15,2013-01-27 07:40:00,
2013-01-26 23:55:00,43.8,40.2,30.10,West,269,6.0,6.0,87,0.00,,,0.01,0,Wunderground v.1.15,2013-01-27 07:55:00,